sensor_id;sensor_type;location;lat;lon;timestamp;P1;durP1;ratioP1;P2;durP2;ratioP2
38182;SDS011;23991;52.430;10.586;2023-04-15T00:00:40;5.63;;;3.67;;
38182;SDS011;23991;52.430;10.586;2023-04-15T00:03:06;7.30;;;3.95;;
38182;SDS011;23991;52.430;10.586;2023-04-15T00:05:32;5.97;;;4.07;;
38182;SDS011;23991;52.430;10.586;2023-04-15T00:07:58;5.70;;;4.20;;
38182;SDS011;23991;52.430;10.586;2023-04-15T00:10:25;6.45;;;4.13;;
38182;SDS011;23991;52.430;10.586;2023-04-15T00:12:51;6.72;;;4.82;;
38182;SDS011;23991;52.430;10.586;2023-04-15T00:15:17;7.88;;;4.68;;
38182;SDS011;23991;52.430;10.586;2023-04-15T00:17:42;5.88;;;4.20;;
38182;SDS011;23991;52.430;10.586;2023-04-15T00:20:08;7.22;;;4.65;;
38182;SDS011;23991;52.430;10.586;2023-04-15T00:22:34;6.68;;;4.28;;
38182;SDS011;23991;52.430;10.586;2023-04-15T00:25:00;6.15;;;4.35;;
38182;SDS011;23991;52.430;10.586;2023-04-15T00:27:26;9.20;;;5.00;;
38182;SDS011;23991;52.430;10.586;2023-04-15T00:29:52;9.32;;;5.00;;
38182;SDS011;23991;52.430;10.586;2023-04-15T00:32:17;8.40;;;5.35;;
38182;SDS011;23991;52.430;10.586;2023-04-15T00:34:44;7.25;;;4.60;;
38182;SDS011;23991;52.430;10.586;2023-04-15T00:37:10;8.18;;;5.13;;
38182;SDS011;23991;52.430;10.586;2023-04-15T00:39:36;7.47;;;4.88;;
38182;SDS011;23991;52.430;10.586;2023-04-15T00:42:03;9.82;;;5.53;;
38182;SDS011;23991;52.430;10.586;2023-04-15T00:44:29;8.57;;;5.25;;
38182;SDS011;23991;52.430;10.586;2023-04-15T00:46:54;9.98;;;5.53;;
38182;SDS011;23991;52.430;10.586;2023-04-15T00:49:21;7.80;;;5.53;;
38182;SDS011;23991;52.430;10.586;2023-04-15T00:51:47;9.32;;;5.28;;
38182;SDS011;23991;52.430;10.586;2023-04-15T00:54:13;7.70;;;5.32;;
38182;SDS011;23991;52.430;10.586;2023-04-15T00:56:39;6.95;;;5.22;;
38182;SDS011;23991;52.430;10.586;2023-04-15T00:59:05;8.75;;;5.82;;
38182;SDS011;23991;52.430;10.586;2023-04-15T01:01:33;9.48;;;5.15;;
38182;SDS011;23991;52.430;10.586;2023-04-15T01:04:00;8.85;;;5.70;;
38182;SDS011;23991;52.430;10.586;2023-04-15T01:06:26;9.50;;;5.93;;
38182;SDS011;23991;52.430;10.586;2023-04-15T01:08:52;13.07;;;6.57;;
38182;SDS011;23991;52.430;10.586;2023-04-15T01:11:19;11.57;;;6.35;;
38182;SDS011;23991;52.430;10.586;2023-04-15T01:13:46;9.10;;;6.13;;
38182;SDS011;23991;52.430;10.586;2023-04-15T01:16:12;8.40;;;5.60;;
38182;SDS011;23991;52.430;10.586;2023-04-15T01:18:38;11.10;;;6.80;;
38182;SDS011;23991;52.430;10.586;2023-04-15T01:21:05;10.73;;;6.20;;
38182;SDS011;23991;52.430;10.586;2023-04-15T01:23:32;10.18;;;6.15;;
38182;SDS011;23991;52.430;10.586;2023-04-15T01:26:01;10.73;;;7.20;;
38182;SDS011;23991;52.430;10.586;2023-04-15T01:28:27;9.50;;;6.55;;
38182;SDS011;23991;52.430;10.586;2023-04-15T01:31:09;10.23;;;6.43;;
38182;SDS011;23991;52.430;10.586;2023-04-15T01:33:37;10.07;;;6.10;;
38182;SDS011;23991;52.430;10.586;2023-04-15T01:36:04;11.55;;;6.90;;
38182;SDS011;23991;52.430;10.586;2023-04-15T01:38:32;11.43;;;7.05;;
38182;SDS011;23991;52.430;10.586;2023-04-15T01:40:58;10.35;;;6.30;;
38182;SDS011;23991;52.430;10.586;2023-04-15T01:43:24;9.45;;;6.32;;
38182;SDS011;23991;52.430;10.586;2023-04-15T01:45:50;12.70;;;7.32;;
38182;SDS011;23991;52.430;10.586;2023-04-15T01:48:16;10.70;;;6.93;;
38182;SDS011;23991;52.430;10.586;2023-04-15T01:50:42;13.73;;;7.35;;
38182;SDS011;23991;52.430;10.586;2023-04-15T01:53:07;8.98;;;6.28;;
38182;SDS011;23991;52.430;10.586;2023-04-15T01:55:33;10.35;;;7.28;;
38182;SDS011;23991;52.430;10.586;2023-04-15T01:57:59;12.82;;;8.07;;
38182;SDS011;23991;52.430;10.586;2023-04-15T02:00:25;11.27;;;6.78;;
38182;SDS011;23991;52.430;10.586;2023-04-15T02:02:51;10.15;;;6.78;;
38182;SDS011;23991;52.430;10.586;2023-04-15T02:05:17;11.32;;;7.32;;
38182;SDS011;23991;52.430;10.586;2023-04-15T02:07:42;10.95;;;7.05;;
38182;SDS011;23991;52.430;10.586;2023-04-15T02:10:08;10.63;;;6.97;;
38182;SDS011;23991;52.430;10.586;2023-04-15T02:12:34;9.88;;;6.97;;
38182;SDS011;23991;52.430;10.586;2023-04-15T02:15:00;10.98;;;6.95;;
38182;SDS011;23991;52.430;10.586;2023-04-15T02:17:26;12.68;;;6.90;;
38182;SDS011;23991;52.430;10.586;2023-04-15T02:19:51;12.57;;;7.10;;
38182;SDS011;23991;52.430;10.586;2023-04-15T02:22:17;12.05;;;6.93;;
38182;SDS011;23991;52.430;10.586;2023-04-15T02:24:43;11.38;;;7.10;;
38182;SDS011;23991;52.430;10.586;2023-04-15T02:27:10;12.13;;;7.45;;
38182;SDS011;23991;52.430;10.586;2023-04-15T02:29:39;10.70;;;6.75;;
38182;SDS011;23991;52.430;10.586;2023-04-15T02:32:05;12.02;;;7.97;;
38182;SDS011;23991;52.430;10.586;2023-04-15T02:34:31;13.35;;;8.07;;
38182;SDS011;23991;52.430;10.586;2023-04-15T02:36:57;11.23;;;7.03;;
38182;SDS011;23991;52.430;10.586;2023-04-15T02:39:23;10.05;;;6.80;;
38182;SDS011;23991;52.430;10.586;2023-04-15T02:41:49;12.48;;;7.18;;
38182;SDS011;23991;52.430;10.586;2023-04-15T02:44:17;11.43;;;7.70;;
38182;SDS011;23991;52.430;10.586;2023-04-15T02:46:44;12.85;;;8.13;;
38182;SDS011;23991;52.430;10.586;2023-04-15T02:49:16;12.95;;;7.57;;
38182;SDS011;23991;52.430;10.586;2023-04-15T02:51:42;12.73;;;7.75;;
38182;SDS011;23991;52.430;10.586;2023-04-15T02:54:11;11.13;;;7.95;;
38182;SDS011;23991;52.430;10.586;2023-04-15T02:56:37;12.55;;;7.75;;
38182;SDS011;23991;52.430;10.586;2023-04-15T02:59:02;13.45;;;8.68;;
38182;SDS011;23991;52.430;10.586;2023-04-15T03:01:28;11.75;;;8.13;;
38182;SDS011;23991;52.430;10.586;2023-04-15T03:03:54;12.20;;;8.02;;
38182;SDS011;23991;52.430;10.586;2023-04-15T03:06:20;12.23;;;7.82;;
38182;SDS011;23991;52.430;10.586;2023-04-15T03:08:45;12.45;;;8.10;;
38182;SDS011;23991;52.430;10.586;2023-04-15T03:11:11;14.40;;;8.73;;
38182;SDS011;23991;52.430;10.586;2023-04-15T03:13:36;14.88;;;8.57;;
38182;SDS011;23991;52.430;10.586;2023-04-15T03:16:03;13.32;;;8.20;;
38182;SDS011;23991;52.430;10.586;2023-04-15T03:18:29;11.55;;;8.20;;
38182;SDS011;23991;52.430;10.586;2023-04-15T03:20:55;15.00;;;9.30;;
38182;SDS011;23991;52.430;10.586;2023-04-15T03:23:20;13.35;;;8.50;;
38182;SDS011;23991;52.430;10.586;2023-04-15T03:25:46;12.80;;;7.78;;
38182;SDS011;23991;52.430;10.586;2023-04-15T03:28:11;13.95;;;8.63;;
38182;SDS011;23991;52.430;10.586;2023-04-15T03:30:37;13.63;;;8.93;;
38182;SDS011;23991;52.430;10.586;2023-04-15T03:33:02;13.38;;;8.48;;
38182;SDS011;23991;52.430;10.586;2023-04-15T03:35:28;13.57;;;8.73;;
38182;SDS011;23991;52.430;10.586;2023-04-15T03:37:53;13.73;;;9.13;;
38182;SDS011;23991;52.430;10.586;2023-04-15T03:40:20;15.38;;;8.95;;
38182;SDS011;23991;52.430;10.586;2023-04-15T03:42:45;14.88;;;8.48;;
38182;SDS011;23991;52.430;10.586;2023-04-15T03:45:11;15.18;;;9.15;;
38182;SDS011;23991;52.430;10.586;2023-04-15T03:47:37;16.55;;;9.45;;
38182;SDS011;23991;52.430;10.586;2023-04-15T03:50:02;13.48;;;8.73;;
38182;SDS011;23991;52.430;10.586;2023-04-15T03:52:28;15.73;;;8.57;;
38182;SDS011;23991;52.430;10.586;2023-04-15T03:54:53;14.35;;;9.20;;
38182;SDS011;23991;52.430;10.586;2023-04-15T03:57:19;15.65;;;9.20;;
38182;SDS011;23991;52.430;10.586;2023-04-15T03:59:45;16.58;;;9.18;;
38182;SDS011;23991;52.430;10.586;2023-04-15T04:02:11;14.43;;;8.55;;
38182;SDS011;23991;52.430;10.586;2023-04-15T04:04:36;15.50;;;9.68;;
38182;SDS011;23991;52.430;10.586;2023-04-15T04:07:02;13.52;;;8.40;;
38182;SDS011;23991;52.430;10.586;2023-04-15T04:09:27;14.82;;;8.60;;
38182;SDS011;23991;52.430;10.586;2023-04-15T04:11:53;14.80;;;9.20;;
38182;SDS011;23991;52.430;10.586;2023-04-15T04:14:19;14.60;;;8.25;;
38182;SDS011;23991;52.430;10.586;2023-04-15T04:16:44;14.10;;;9.15;;
38182;SDS011;23991;52.430;10.586;2023-04-15T04:19:10;14.43;;;8.50;;
38182;SDS011;23991;52.430;10.586;2023-04-15T04:21:36;15.32;;;8.35;;
38182;SDS011;23991;52.430;10.586;2023-04-15T04:24:02;13.23;;;8.07;;
38182;SDS011;23991;52.430;10.586;2023-04-15T04:26:28;14.07;;;8.50;;
38182;SDS011;23991;52.430;10.586;2023-04-15T04:28:53;16.52;;;9.45;;
38182;SDS011;23991;52.430;10.586;2023-04-15T04:31:19;13.93;;;9.73;;
38182;SDS011;23991;52.430;10.586;2023-04-15T04:33:45;14.70;;;8.20;;
38182;SDS011;23991;52.430;10.586;2023-04-15T04:36:10;13.88;;;9.15;;
38182;SDS011;23991;52.430;10.586;2023-04-15T04:38:36;16.98;;;9.32;;
38182;SDS011;23991;52.430;10.586;2023-04-15T04:41:01;13.98;;;8.57;;
38182;SDS011;23991;52.430;10.586;2023-04-15T04:43:27;13.13;;;9.07;;
38182;SDS011;23991;52.430;10.586;2023-04-15T04:45:52;14.15;;;8.43;;
38182;SDS011;23991;52.430;10.586;2023-04-15T04:48:18;14.70;;;7.97;;
38182;SDS011;23991;52.430;10.586;2023-04-15T04:50:43;12.40;;;7.57;;
38182;SDS011;23991;52.430;10.586;2023-04-15T04:53:10;13.27;;;7.72;;
38182;SDS011;23991;52.430;10.586;2023-04-15T04:55:36;11.43;;;7.10;;
38182;SDS011;23991;52.430;10.586;2023-04-15T04:58:02;11.77;;;7.20;;
38182;SDS011;23991;52.430;10.586;2023-04-15T05:00:28;11.57;;;7.57;;
38182;SDS011;23991;52.430;10.586;2023-04-15T05:02:53;10.85;;;7.50;;
38182;SDS011;23991;52.430;10.586;2023-04-15T05:05:19;12.68;;;7.50;;
38182;SDS011;23991;52.430;10.586;2023-04-15T05:07:45;10.75;;;7.05;;
38182;SDS011;23991;52.430;10.586;2023-04-15T05:10:11;11.75;;;7.20;;
38182;SDS011;23991;52.430;10.586;2023-04-15T05:12:38;11.30;;;7.05;;
38182;SDS011;23991;52.430;10.586;2023-04-15T05:15:04;11.93;;;7.28;;
38182;SDS011;23991;52.430;10.586;2023-04-15T05:17:30;9.55;;;6.35;;
38182;SDS011;23991;52.430;10.586;2023-04-15T05:19:57;9.90;;;6.70;;
38182;SDS011;23991;52.430;10.586;2023-04-15T05:22:22;11.00;;;7.00;;
38182;SDS011;23991;52.430;10.586;2023-04-15T05:24:48;10.10;;;6.43;;
38182;SDS011;23991;52.430;10.586;2023-04-15T05:27:14;10.60;;;6.50;;
38182;SDS011;23991;52.430;10.586;2023-04-15T05:29:39;10.77;;;6.47;;
38182;SDS011;23991;52.430;10.586;2023-04-15T05:32:05;10.55;;;6.50;;
38182;SDS011;23991;52.430;10.586;2023-04-15T05:34:31;10.23;;;6.65;;
38182;SDS011;23991;52.430;10.586;2023-04-15T05:36:56;10.00;;;5.97;;
38182;SDS011;23991;52.430;10.586;2023-04-15T05:39:22;8.77;;;5.93;;
38182;SDS011;23991;52.430;10.586;2023-04-15T05:41:47;8.95;;;5.82;;
38182;SDS011;23991;52.430;10.586;2023-04-15T05:44:13;9.07;;;5.82;;
38182;SDS011;23991;52.430;10.586;2023-04-15T05:46:38;8.00;;;5.28;;
38182;SDS011;23991;52.430;10.586;2023-04-15T05:49:04;10.27;;;6.07;;
38182;SDS011;23991;52.430;10.586;2023-04-15T05:51:30;7.40;;;5.03;;
38182;SDS011;23991;52.430;10.586;2023-04-15T05:53:55;8.13;;;5.57;;
38182;SDS011;23991;52.430;10.586;2023-04-15T05:56:21;8.82;;;5.50;;
38182;SDS011;23991;52.430;10.586;2023-04-15T05:58:46;8.30;;;5.68;;
38182;SDS011;23991;52.430;10.586;2023-04-15T06:01:12;7.85;;;4.95;;
38182;SDS011;23991;52.430;10.586;2023-04-15T06:03:37;7.72;;;4.88;;
38182;SDS011;23991;52.430;10.586;2023-04-15T06:06:03;9.05;;;5.30;;
38182;SDS011;23991;52.430;10.586;2023-04-15T06:08:29;7.78;;;5.18;;
38182;SDS011;23991;52.430;10.586;2023-04-15T06:10:55;6.78;;;4.88;;
38182;SDS011;23991;52.430;10.586;2023-04-15T06:13:20;6.93;;;4.63;;
38182;SDS011;23991;52.430;10.586;2023-04-15T06:15:46;6.07;;;4.15;;
38182;SDS011;23991;52.430;10.586;2023-04-15T06:18:12;7.13;;;4.70;;
38182;SDS011;23991;52.430;10.586;2023-04-15T06:20:38;6.38;;;4.35;;
38182;SDS011;23991;52.430;10.586;2023-04-15T06:23:03;6.22;;;4.13;;
38182;SDS011;23991;52.430;10.586;2023-04-15T06:25:29;5.93;;;3.85;;
38182;SDS011;23991;52.430;10.586;2023-04-15T06:27:55;5.18;;;3.63;;
38182;SDS011;23991;52.430;10.586;2023-04-15T06:30:20;5.70;;;3.50;;
38182;SDS011;23991;52.430;10.586;2023-04-15T06:32:46;4.63;;;3.25;;
38182;SDS011;23991;52.430;10.586;2023-04-15T06:35:12;5.20;;;3.58;;
38182;SDS011;23991;52.430;10.586;2023-04-15T06:37:38;4.90;;;3.47;;
38182;SDS011;23991;52.430;10.586;2023-04-15T06:40:04;5.18;;;3.38;;
38182;SDS011;23991;52.430;10.586;2023-04-15T06:42:30;5.55;;;3.80;;
38182;SDS011;23991;52.430;10.586;2023-04-15T06:44:56;4.40;;;3.17;;
38182;SDS011;23991;52.430;10.586;2023-04-15T06:47:21;4.25;;;3.05;;
38182;SDS011;23991;52.430;10.586;2023-04-15T06:49:47;5.68;;;3.10;;
38182;SDS011;23991;52.430;10.586;2023-04-15T06:52:12;4.95;;;3.63;;
38182;SDS011;23991;52.430;10.586;2023-04-15T06:54:38;5.03;;;3.45;;
38182;SDS011;23991;52.430;10.586;2023-04-15T06:57:04;4.60;;;3.17;;
38182;SDS011;23991;52.430;10.586;2023-04-15T06:59:31;5.85;;;3.13;;
38182;SDS011;23991;52.430;10.586;2023-04-15T07:01:56;5.13;;;3.28;;
38182;SDS011;23991;52.430;10.586;2023-04-15T07:04:22;3.95;;;3.03;;
38182;SDS011;23991;52.430;10.586;2023-04-15T07:06:48;5.03;;;3.47;;
38182;SDS011;23991;52.430;10.586;2023-04-15T07:09:13;4.00;;;3.00;;
38182;SDS011;23991;52.430;10.586;2023-04-15T07:11:39;5.03;;;3.20;;
38182;SDS011;23991;52.430;10.586;2023-04-15T07:14:05;5.35;;;3.83;;
38182;SDS011;23991;52.430;10.586;2023-04-15T07:16:30;7.18;;;3.70;;
38182;SDS011;23991;52.430;10.586;2023-04-15T07:18:56;5.13;;;3.50;;
38182;SDS011;23991;52.430;10.586;2023-04-15T07:21:22;5.05;;;3.58;;
38182;SDS011;23991;52.430;10.586;2023-04-15T07:23:48;4.00;;;3.10;;
38182;SDS011;23991;52.430;10.586;2023-04-15T07:26:14;4.90;;;3.53;;
38182;SDS011;23991;52.430;10.586;2023-04-15T07:28:39;5.55;;;3.63;;
38182;SDS011;23991;52.430;10.586;2023-04-15T07:31:05;6.35;;;3.75;;
38182;SDS011;23991;52.430;10.586;2023-04-15T07:33:31;4.68;;;3.53;;
38182;SDS011;23991;52.430;10.586;2023-04-15T07:35:56;4.93;;;3.70;;
38182;SDS011;23991;52.430;10.586;2023-04-15T07:38:22;5.07;;;3.60;;
38182;SDS011;23991;52.430;10.586;2023-04-15T07:40:47;5.55;;;4.00;;
38182;SDS011;23991;52.430;10.586;2023-04-15T07:43:13;5.35;;;3.38;;
38182;SDS011;23991;52.430;10.586;2023-04-15T07:45:39;6.38;;;4.22;;
38182;SDS011;23991;52.430;10.586;2023-04-15T07:48:05;6.53;;;4.35;;
38182;SDS011;23991;52.430;10.586;2023-04-15T07:50:30;8.23;;;5.18;;
38182;SDS011;23991;52.430;10.586;2023-04-15T07:52:56;7.55;;;4.85;;
38182;SDS011;23991;52.430;10.586;2023-04-15T07:55:22;6.93;;;4.78;;
38182;SDS011;23991;52.430;10.586;2023-04-15T07:57:48;7.72;;;5.20;;
38182;SDS011;23991;52.430;10.586;2023-04-15T08:00:14;9.95;;;6.40;;
38182;SDS011;23991;52.430;10.586;2023-04-15T08:02:41;11.63;;;6.53;;
38182;SDS011;23991;52.430;10.586;2023-04-15T08:05:07;8.88;;;6.25;;
38182;SDS011;23991;52.430;10.586;2023-04-15T08:07:35;11.10;;;7.53;;
38182;SDS011;23991;52.430;10.586;2023-04-15T08:10:02;12.77;;;7.60;;
38182;SDS011;23991;52.430;10.586;2023-04-15T08:12:28;11.18;;;7.68;;
38182;SDS011;23991;52.430;10.586;2023-04-15T08:14:53;11.50;;;7.82;;
38182;SDS011;23991;52.430;10.586;2023-04-15T08:17:20;12.82;;;7.80;;
38182;SDS011;23991;52.430;10.586;2023-04-15T08:19:45;14.15;;;8.50;;
38182;SDS011;23991;52.430;10.586;2023-04-15T08:22:12;11.75;;;7.68;;
38182;SDS011;23991;52.430;10.586;2023-04-15T08:24:38;12.90;;;8.20;;
38182;SDS011;23991;52.430;10.586;2023-04-15T08:27:03;12.52;;;8.20;;
38182;SDS011;23991;52.430;10.586;2023-04-15T08:29:30;14.70;;;9.40;;
38182;SDS011;23991;52.430;10.586;2023-04-15T08:31:56;13.50;;;8.63;;
38182;SDS011;23991;52.430;10.586;2023-04-15T08:34:23;15.48;;;9.68;;
38182;SDS011;23991;52.430;10.586;2023-04-15T08:36:49;13.57;;;9.23;;
38182;SDS011;23991;52.430;10.586;2023-04-15T08:39:14;16.10;;;10.23;;
38182;SDS011;23991;52.430;10.586;2023-04-15T08:41:47;15.18;;;9.63;;
38182;SDS011;23991;52.430;10.586;2023-04-15T08:44:24;15.85;;;10.32;;
38182;SDS011;23991;52.430;10.586;2023-04-15T08:46:53;17.33;;;10.82;;
38182;SDS011;23991;52.430;10.586;2023-04-15T08:49:21;13.88;;;9.63;;
38182;SDS011;23991;52.430;10.586;2023-04-15T08:51:51;16.00;;;10.60;;
38182;SDS011;23991;52.430;10.586;2023-04-15T08:54:17;15.40;;;9.95;;
38182;SDS011;23991;52.430;10.586;2023-04-15T08:56:43;18.50;;;11.57;;
38182;SDS011;23991;52.430;10.586;2023-04-15T08:59:08;17.23;;;11.10;;
38182;SDS011;23991;52.430;10.586;2023-04-15T09:01:35;16.25;;;11.02;;
38182;SDS011;23991;52.430;10.586;2023-04-15T09:04:02;17.50;;;10.88;;
38182;SDS011;23991;52.430;10.586;2023-04-15T09:06:31;18.42;;;11.80;;
38182;SDS011;23991;52.430;10.586;2023-04-15T09:08:57;17.70;;;11.60;;
38182;SDS011;23991;52.430;10.586;2023-04-15T09:11:23;17.67;;;11.00;;
38182;SDS011;23991;52.430;10.586;2023-04-15T09:13:49;18.38;;;11.02;;
38182;SDS011;23991;52.430;10.586;2023-04-15T09:16:15;17.10;;;10.80;;
38182;SDS011;23991;52.430;10.586;2023-04-15T09:18:40;20.10;;;12.63;;
38182;SDS011;23991;52.430;10.586;2023-04-15T09:21:07;18.45;;;11.57;;
38182;SDS011;23991;52.430;10.586;2023-04-15T09:23:39;18.92;;;12.65;;
38182;SDS011;23991;52.430;10.586;2023-04-15T09:26:17;19.92;;;12.05;;
38182;SDS011;23991;52.430;10.586;2023-04-15T09:28:43;18.30;;;11.45;;
38182;SDS011;23991;52.430;10.586;2023-04-15T09:31:08;20.15;;;12.77;;
38182;SDS011;23991;52.430;10.586;2023-04-15T09:33:40;20.13;;;12.60;;
38182;SDS011;23991;52.430;10.586;2023-04-15T09:36:19;19.60;;;12.82;;
38182;SDS011;23991;52.430;10.586;2023-04-15T09:38:56;19.55;;;12.57;;
38182;SDS011;23991;52.430;10.586;2023-04-15T09:41:23;21.33;;;13.30;;
38182;SDS011;23991;52.430;10.586;2023-04-15T09:43:50;18.35;;;12.80;;
38182;SDS011;23991;52.430;10.586;2023-04-15T09:46:15;18.75;;;12.43;;
38182;SDS011;23991;52.430;10.586;2023-04-15T09:48:41;19.90;;;12.93;;
38182;SDS011;23991;52.430;10.586;2023-04-15T09:51:06;18.85;;;12.15;;
38182;SDS011;23991;52.430;10.586;2023-04-15T09:53:33;20.80;;;13.25;;
38182;SDS011;23991;52.430;10.586;2023-04-15T09:56:00;19.35;;;12.52;;
38182;SDS011;23991;52.430;10.586;2023-04-15T09:58:27;20.75;;;13.85;;
38182;SDS011;23991;52.430;10.586;2023-04-15T10:00:55;20.23;;;13.48;;
38182;SDS011;23991;52.430;10.586;2023-04-15T10:03:23;20.08;;;12.95;;
38182;SDS011;23991;52.430;10.586;2023-04-15T10:05:51;21.50;;;14.25;;
38182;SDS011;23991;52.430;10.586;2023-04-15T10:08:19;21.20;;;13.98;;
38182;SDS011;23991;52.430;10.586;2023-04-15T10:10:46;19.75;;;12.77;;
38182;SDS011;23991;52.430;10.586;2023-04-15T10:13:13;20.33;;;12.80;;
38182;SDS011;23991;52.430;10.586;2023-04-15T10:15:43;21.73;;;13.80;;
38182;SDS011;23991;52.430;10.586;2023-04-15T10:18:11;21.45;;;14.18;;
38182;SDS011;23991;52.430;10.586;2023-04-15T10:20:40;22.43;;;13.80;;
38182;SDS011;23991;52.430;10.586;2023-04-15T10:23:07;21.00;;;14.00;;
38182;SDS011;23991;52.430;10.586;2023-04-15T10:25:33;20.55;;;13.85;;
38182;SDS011;23991;52.430;10.586;2023-04-15T10:28:00;23.40;;;14.02;;
38182;SDS011;23991;52.430;10.586;2023-04-15T10:30:27;21.77;;;13.57;;
38182;SDS011;23991;52.430;10.586;2023-04-15T10:32:53;22.73;;;14.23;;
38182;SDS011;23991;52.430;10.586;2023-04-15T10:35:20;23.15;;;14.77;;
38182;SDS011;23991;52.430;10.586;2023-04-15T10:37:47;22.25;;;14.95;;
38182;SDS011;23991;52.430;10.586;2023-04-15T10:40:28;24.58;;;15.80;;
38182;SDS011;23991;52.430;10.586;2023-04-15T10:42:59;24.33;;;15.27;;
38182;SDS011;23991;52.430;10.586;2023-04-15T10:45:36;21.90;;;14.15;;
38182;SDS011;23991;52.430;10.586;2023-04-15T10:48:03;26.23;;;15.40;;
38182;SDS011;23991;52.430;10.586;2023-04-15T10:50:31;22.43;;;14.77;;
38182;SDS011;23991;52.430;10.586;2023-04-15T10:52:57;23.25;;;15.35;;
38182;SDS011;23991;52.430;10.586;2023-04-15T10:55:26;24.50;;;15.20;;
38182;SDS011;23991;52.430;10.586;2023-04-15T10:58:00;25.98;;;15.98;;
38182;SDS011;23991;52.430;10.586;2023-04-15T11:02:56;25.15;;;15.25;;
38182;SDS011;23991;52.430;10.586;2023-04-15T11:08:15;27.20;;;16.65;;
38182;SDS011;23991;52.430;10.586;2023-04-15T11:20:32;26.95;;;17.23;;
38182;SDS011;23991;52.430;10.586;2023-04-15T11:22:58;27.70;;;17.60;;
38182;SDS011;23991;52.430;10.586;2023-04-15T11:25:24;30.00;;;18.38;;
38182;SDS011;23991;52.430;10.586;2023-04-15T11:27:54;27.08;;;16.92;;
38182;SDS011;23991;52.430;10.586;2023-04-15T11:30:21;29.88;;;18.02;;
38182;SDS011;23991;52.430;10.586;2023-04-15T11:32:48;27.75;;;17.02;;
38182;SDS011;23991;52.430;10.586;2023-04-15T11:37:44;31.90;;;18.75;;
38182;SDS011;23991;52.430;10.586;2023-04-15T11:40:10;32.22;;;18.00;;
38182;SDS011;23991;52.430;10.586;2023-04-15T11:42:37;31.33;;;17.77;;
38182;SDS011;23991;52.430;10.586;2023-04-15T11:45:06;32.13;;;19.10;;
38182;SDS011;23991;52.430;10.586;2023-04-15T11:47:39;30.00;;;18.45;;
38182;SDS011;23991;52.430;10.586;2023-04-15T11:50:39;29.27;;;17.67;;
38182;SDS011;23991;52.430;10.586;2023-04-15T11:52:59;29.10;;;16.90;;
38182;SDS011;23991;52.430;10.586;2023-04-15T11:55:27;31.73;;;19.10;;
38182;SDS011;23991;52.430;10.586;2023-04-15T12:00:46;29.92;;;17.42;;
38182;SDS011;23991;52.430;10.586;2023-04-15T12:06:06;33.67;;;18.60;;
38182;SDS011;23991;52.430;10.586;2023-04-15T12:16:50;32.47;;;19.63;;
38182;SDS011;23991;52.430;10.586;2023-04-15T12:19:22;33.03;;;19.90;;
38182;SDS011;23991;52.430;10.586;2023-04-15T12:21:50;30.35;;;17.98;;
38182;SDS011;23991;52.430;10.586;2023-04-15T12:24:19;30.40;;;18.02;;
38182;SDS011;23991;52.430;10.586;2023-04-15T12:26:50;33.10;;;18.95;;
38182;SDS011;23991;52.430;10.586;2023-04-15T12:29:17;31.00;;;18.42;;
38182;SDS011;23991;52.430;10.586;2023-04-15T12:31:54;30.38;;;17.15;;
38182;SDS011;23991;52.430;10.586;2023-04-15T12:34:28;32.83;;;19.60;;
38182;SDS011;23991;52.430;10.586;2023-04-15T12:36:55;31.95;;;18.00;;
38182;SDS011;23991;52.430;10.586;2023-04-15T12:39:25;30.75;;;17.63;;
38182;SDS011;23991;52.430;10.586;2023-04-15T12:41:52;31.42;;;17.42;;
38182;SDS011;23991;52.430;10.586;2023-04-15T12:44:18;29.42;;;17.83;;
38182;SDS011;23991;52.430;10.586;2023-04-15T12:46:46;28.65;;;17.75;;
38182;SDS011;23991;52.430;10.586;2023-04-15T12:49:12;31.45;;;18.38;;
38182;SDS011;23991;52.430;10.586;2023-04-15T12:51:43;29.42;;;18.27;;
38182;SDS011;23991;52.430;10.586;2023-04-15T12:54:09;28.38;;;16.65;;
38182;SDS011;23991;52.430;10.586;2023-04-15T12:56:35;29.10;;;18.17;;
38182;SDS011;23991;52.430;10.586;2023-04-15T12:59:00;28.52;;;16.42;;
38182;SDS011;23991;52.430;10.586;2023-04-15T13:01:26;25.35;;;16.33;;
38182;SDS011;23991;52.430;10.586;2023-04-15T13:03:52;28.95;;;17.00;;
38182;SDS011;23991;52.430;10.586;2023-04-15T13:06:17;26.98;;;17.23;;
38182;SDS011;23991;52.430;10.586;2023-04-15T13:08:43;27.13;;;16.60;;
38182;SDS011;23991;52.430;10.586;2023-04-15T13:11:09;25.77;;;16.08;;
38182;SDS011;23991;52.430;10.586;2023-04-15T13:13:34;24.30;;;16.92;;
38182;SDS011;23991;52.430;10.586;2023-04-15T13:16:00;27.20;;;16.60;;
38182;SDS011;23991;52.430;10.586;2023-04-15T13:18:26;28.15;;;17.15;;
38182;SDS011;23991;52.430;10.586;2023-04-15T13:20:52;26.48;;;16.15;;
38182;SDS011;23991;52.430;10.586;2023-04-15T13:23:18;24.75;;;16.75;;
38182;SDS011;23991;52.430;10.586;2023-04-15T13:25:44;25.05;;;15.95;;
38182;SDS011;23991;52.430;10.586;2023-04-15T13:28:10;27.55;;;16.83;;
38182;SDS011;23991;52.430;10.586;2023-04-15T13:30:36;23.52;;;15.63;;
38182;SDS011;23991;52.430;10.586;2023-04-15T13:33:02;24.25;;;15.52;;
38182;SDS011;23991;52.430;10.586;2023-04-15T13:35:28;24.40;;;15.60;;
38182;SDS011;23991;52.430;10.586;2023-04-15T13:37:54;23.08;;;15.75;;
38182;SDS011;23991;52.430;10.586;2023-04-15T13:40:20;22.10;;;15.60;;
38182;SDS011;23991;52.430;10.586;2023-04-15T13:42:45;22.77;;;14.98;;
38182;SDS011;23991;52.430;10.586;2023-04-15T13:45:11;22.30;;;16.02;;
38182;SDS011;23991;52.430;10.586;2023-04-15T13:47:37;26.65;;;17.00;;
38182;SDS011;23991;52.430;10.586;2023-04-15T13:50:03;25.92;;;15.57;;
38182;SDS011;23991;52.430;10.586;2023-04-15T13:52:29;25.45;;;16.85;;
38182;SDS011;23991;52.430;10.586;2023-04-15T13:54:55;23.27;;;15.70;;
38182;SDS011;23991;52.430;10.586;2023-04-15T13:57:20;21.70;;;14.40;;
38182;SDS011;23991;52.430;10.586;2023-04-15T13:59:46;22.33;;;14.80;;
38182;SDS011;23991;52.430;10.586;2023-04-15T14:02:11;22.17;;;15.05;;
38182;SDS011;23991;52.430;10.586;2023-04-15T14:04:37;22.77;;;16.30;;
38182;SDS011;23991;52.430;10.586;2023-04-15T14:07:03;20.05;;;14.85;;
38182;SDS011;23991;52.430;10.586;2023-04-15T14:09:29;21.58;;;15.65;;
38182;SDS011;23991;52.430;10.586;2023-04-15T14:11:55;22.27;;;15.38;;
38182;SDS011;23991;52.430;10.586;2023-04-15T14:14:20;21.25;;;14.98;;
38182;SDS011;23991;52.430;10.586;2023-04-15T14:16:46;19.10;;;13.05;;
38182;SDS011;23991;52.430;10.586;2023-04-15T14:19:13;18.70;;;13.75;;
38182;SDS011;23991;52.430;10.586;2023-04-15T14:21:39;21.75;;;14.15;;
38182;SDS011;23991;52.430;10.586;2023-04-15T14:24:04;16.70;;;12.75;;
38182;SDS011;23991;52.430;10.586;2023-04-15T14:26:30;20.65;;;13.40;;
38182;SDS011;23991;52.430;10.586;2023-04-15T14:28:55;16.27;;;12.60;;
38182;SDS011;23991;52.430;10.586;2023-04-15T14:31:21;16.50;;;12.38;;
38182;SDS011;23991;52.430;10.586;2023-04-15T14:33:46;17.13;;;12.85;;
38182;SDS011;23991;52.430;10.586;2023-04-15T14:36:12;18.75;;;12.93;;
38182;SDS011;23991;52.430;10.586;2023-04-15T14:38:39;18.05;;;12.68;;
38182;SDS011;23991;52.430;10.586;2023-04-15T14:41:05;17.63;;;13.10;;
38182;SDS011;23991;52.430;10.586;2023-04-15T14:43:32;17.48;;;12.68;;
38182;SDS011;23991;52.430;10.586;2023-04-15T14:45:58;15.32;;;12.05;;
38182;SDS011;23991;52.430;10.586;2023-04-15T14:48:23;17.95;;;12.30;;